Platteville, Colorado
Current Conditions -  °F | °C
As of 3:35 PM on Tuesday 21 Oct 2014 (Local Time) from KEIK Reporting Station
Clear Clear  
Wind Chill: 75°   Ceiling: Unl
Heat Index: 75°   Visibility: 10mi
Dew Point: 31°   Wind: 0mph
Humidity: 20%   Direction: NA
Pressure: 29.91"   Gusts: NA
Location:  40.21°N, 104.82°W
Report Text: KEIK 212135Z AUTO 00000KT 10SM CLR 24/00 A2991 RMK AO2 T02391004
Loading
Personal Weather Stations






























Interactive Weather Map
Tropical Storm Tracking
New forecast layout! Learn more

10-Day Weather Forecast

Advertisements
Track Severe Weather on mobile